createdAt,value
2018-11-02T00:01:20.119Z,79.04
2018-11-02T00:03:48.320Z,79.20
2018-11-02T00:06:16.570Z,79.33
2018-11-02T00:08:44.863Z,79.57
2018-11-02T00:11:13.089Z,80.11
2018-11-02T00:13:41.676Z,80.12
2018-11-02T00:16:10.049Z,80.30
2018-11-02T00:18:38.260Z,80.54
2018-11-02T00:21:06.517Z,80.50
2018-11-02T00:23:34.772Z,80.72
2018-11-02T00:26:03.109Z,80.79
2018-11-02T00:28:31.393Z,80.74
2018-11-02T00:30:59.669Z,80.89
2018-11-02T00:33:27.830Z,80.97
2018-11-02T00:35:56.053Z,81.06
2018-11-02T00:38:24.281Z,80.74
2018-11-02T00:40:52.479Z,80.62
2018-11-02T00:43:20.763Z,80.79
2018-11-02T00:45:49.077Z,81.07
2018-11-02T00:48:17.307Z,80.98
2018-11-02T00:50:45.535Z,80.95
2018-11-02T00:53:13.812Z,81.19
2018-11-02T00:55:42.043Z,81.21
2018-11-02T00:58:10.344Z,80.84
2018-11-02T01:00:38.579Z,80.65
2018-11-02T01:03:06.820Z,80.80
2018-11-02T01:05:35.103Z,80.68
2018-11-02T01:08:03.408Z,80.94
2018-11-02T01:10:31.621Z,80.82
2018-11-02T01:13:00.271Z,80.76
2018-11-02T01:15:28.457Z,80.55
2018-11-02T01:17:56.648Z,80.00
2018-11-02T01:20:25.314Z,79.56
2018-11-02T01:22:53.640Z,79.12
2018-11-02T01:25:21.868Z,78.79
2018-11-02T01:27:50.127Z,79.17
2018-11-02T01:30:18.415Z,79.42
2018-11-02T01:32:46.635Z,79.53
2018-11-02T01:35:14.834Z,79.84
2018-11-02T01:37:43.029Z,80.51
2018-11-02T01:40:11.262Z,79.68
2018-11-02T01:42:39.439Z,79.10
2018-11-02T01:45:08.009Z,79.20
2018-11-02T01:47:36.272Z,78.98
2018-11-02T01:50:05.259Z,79.31
2018-11-02T01:52:33.499Z,79.78
2018-11-02T01:55:02.660Z,80.08
2018-11-02T01:57:30.881Z,80.16
2018-11-02T01:59:59.125Z,80.47
2018-11-02T02:02:27.342Z,80.87
2018-11-02T02:04:55.571Z,81.05
2018-11-02T02:07:23.923Z,81.35
2018-11-02T02:09:52.253Z,81.29
2018-11-02T02:12:20.716Z,81.96
2018-11-02T02:14:48.928Z,82.44
2018-11-02T02:17:17.115Z,82.31
2018-11-02T02:19:45.447Z,82.14
2018-11-02T02:22:13.672Z,82.07
2018-11-02T02:24:41.912Z,81.96
2018-11-02T02:27:10.104Z,81.63
2018-11-02T02:29:38.351Z,81.45
2018-11-02T02:32:06.640Z,80.90
2018-11-02T02:34:34.881Z,81.31
2018-11-02T02:37:03.207Z,81.76
2018-11-02T02:39:31.408Z,81.86
2018-11-02T02:41:59.672Z,81.61
2018-11-02T02:44:27.858Z,81.25
2018-11-02T02:46:56.051Z,80.87
2018-11-02T02:49:24.606Z,80.98
2018-11-02T02:51:52.829Z,80.96
2018-11-02T02:54:21.060Z,81.32
2018-11-02T02:56:49.384Z,81.74
2018-11-02T02:59:17.593Z,81.81
2018-11-02T03:01:45.830Z,81.70
2018-11-02T03:04:14.040Z,81.75
2018-11-02T03:06:42.216Z,81.36
2018-11-02T03:09:10.422Z,81.27
2018-11-02T03:11:38.620Z,81.40
2018-11-02T03:14:06.899Z,81.41
2018-11-02T03:16:35.077Z,81.32
2018-11-02T03:19:04.562Z,81.07
2018-11-02T03:21:32.725Z,80.84
2018-11-02T03:24:00.976Z,81.29
2018-11-02T03:26:29.213Z,80.86
2018-11-02T03:28:57.479Z,81.11
2018-11-02T03:31:25.789Z,81.29
2018-11-02T03:33:54.023Z,81.29
2018-11-02T03:36:22.460Z,81.83
2018-11-02T03:38:50.700Z,82.03
2018-11-02T03:41:18.893Z,81.76
2018-11-02T03:43:48.342Z,81.20
2018-11-02T03:46:16.535Z,81.69
2018-11-02T03:48:44.728Z,81.31
2018-11-02T03:51:13.303Z,81.04
2018-11-02T03:53:41.529Z,81.76
2018-11-02T03:56:09.938Z,82.49
2018-11-02T03:58:38.199Z,82.19
2018-11-02T04:01:06.501Z,82.27
2018-11-02T04:03:34.713Z,82.29
2018-11-02T04:06:03.188Z,81.30
2018-11-02T04:08:31.396Z,81.27
2018-11-02T04:10:59.586Z,81.23
2018-11-02T04:13:27.880Z,81.97
2018-11-02T04:15:56.192Z,81.97
2018-11-02T04:18:24.392Z,81.74
2018-11-02T04:20:52.856Z,82.01
2018-11-02T04:23:21.233Z,82.13
2018-11-02T04:25:49.412Z,82.21
2018-11-02T04:28:17.596Z,82.09
2018-11-02T04:30:45.896Z,82.04
2018-11-02T04:33:14.028Z,82.21
2018-11-02T04:35:42.219Z,82.29
2018-11-02T04:38:10.439Z,82.34
2018-11-02T04:40:38.659Z,81.37
2018-11-02T04:43:07.412Z,81.80
2018-11-02T04:45:37.596Z,82.36
2018-11-02T04:48:07.485Z,82.70
2018-11-02T04:50:35.833Z,82.53
2018-11-02T04:53:04.452Z,82.64
2018-11-02T04:55:33.721Z,83.04
2018-11-02T04:58:02.025Z,82.60
2018-11-02T05:00:30.694Z,82.73
2018-11-02T05:02:59.066Z,82.92
2018-11-02T05:05:27.544Z,82.59
2018-11-02T05:07:55.752Z,82.77
2018-11-02T05:10:24.002Z,82.82
2018-11-02T05:12:52.304Z,83.27
2018-11-02T05:15:20.493Z,83.33
2018-11-02T05:17:48.729Z,83.51
2018-11-02T05:20:16.911Z,83.54
2018-11-02T05:22:45.394Z,84.19
2018-11-02T05:25:13.609Z,84.46
2018-11-02T05:27:41.808Z,84.47
2018-11-02T05:30:10.737Z,84.88
2018-11-02T05:32:39.317Z,85.21
2018-11-02T05:35:07.692Z,85.27
2018-11-02T05:37:35.902Z,85.03
2018-11-02T05:40:05.415Z,85.31
2018-11-02T05:42:33.638Z,85.11
2018-11-02T05:45:01.916Z,85.22
2018-11-02T05:47:30.349Z,85.31
2018-11-02T05:49:58.428Z,85.65
2018-11-02T05:52:26.667Z,85.71
2018-11-02T05:54:55.233Z,85.41
2018-11-02T05:57:23.460Z,85.42
2018-11-02T05:59:51.658Z,85.02
2018-11-02T06:02:19.867Z,85.10
2018-11-02T06:04:48.096Z,85.08
2018-11-02T06:07:16.344Z,85.20
2018-11-02T06:09:44.590Z,85.18
2018-11-02T06:12:13.283Z,84.81
2018-11-02T06:14:41.510Z,84.64
2018-11-02T06:17:09.767Z,84.41
2018-11-02T06:19:37.992Z,84.78
2018-11-02T06:22:06.257Z,84.87
2018-11-02T06:24:34.497Z,84.99
2018-11-02T06:27:03.220Z,85.30
2018-11-02T06:29:31.823Z,85.39
2018-11-02T06:32:00.083Z,85.65
2018-11-02T06:34:28.313Z,85.63
2018-11-02T06:36:56.789Z,85.37
2018-11-02T06:39:25.008Z,85.55
2018-11-02T06:41:53.223Z,85.46
2018-11-02T06:44:21.480Z,85.34
2018-11-02T06:46:49.735Z,85.25
2018-11-02T06:49:17.941Z,85.08
2018-11-02T06:51:46.206Z,85.28
2018-11-02T06:54:14.808Z,85.11
2018-11-02T06:56:43.051Z,85.23
2018-11-02T06:59:11.392Z,85.13
2018-11-02T07:01:39.509Z,85.00
2018-11-02T07:04:07.770Z,84.93
2018-11-02T07:06:35.938Z,84.64
2018-11-02T07:09:06.500Z,84.73
2018-11-02T07:11:34.738Z,84.75
2018-11-02T07:14:03.373Z,84.56
2018-11-02T07:16:31.576Z,84.54
2018-11-02T07:18:59.738Z,84.50
2018-11-02T07:21:27.894Z,84.24
2018-11-02T07:23:56.757Z,84.17
2018-11-02T07:26:25.011Z,84.07
2018-11-02T07:28:53.177Z,83.95
2018-11-02T07:31:22.339Z,83.53
2018-11-02T07:33:50.645Z,83.22
2018-11-02T07:36:18.820Z,82.92
2018-11-02T07:39:09.677Z,82.59
2018-11-02T07:41:37.848Z,82.58
2018-11-02T07:44:06.388Z,82.32
2018-11-02T07:46:34.637Z,81.85
2018-11-02T07:49:03.944Z,81.78
2018-11-02T07:51:32.151Z,81.74
2018-11-02T07:54:00.324Z,81.40
2018-11-02T07:56:28.496Z,80.87
2018-11-02T07:58:57.396Z,80.94
2018-11-02T08:01:25.857Z,81.01
2018-11-02T08:03:53.998Z,81.28
2018-11-02T08:06:22.235Z,81.08
2018-11-02T08:08:51.012Z,81.10
2018-11-02T08:11:19.660Z,80.71
2018-11-02T08:13:47.824Z,79.86
2018-11-02T08:16:16.021Z,79.09
2018-11-02T08:18:44.321Z,78.45
2018-11-02T08:21:12.427Z,76.60
2018-11-02T08:23:40.651Z,75.66
2018-11-02T08:26:08.891Z,75.00
2018-11-02T08:28:37.108Z,73.88
2018-11-02T08:31:05.709Z,74.09
2018-11-02T08:33:33.932Z,74.43
2018-11-02T08:36:03.059Z,74.06
2018-11-02T08:38:31.272Z,74.45
2018-11-02T08:40:59.486Z,75.42
2018-11-02T08:43:27.763Z,75.50
2018-11-02T08:45:55.940Z,75.87
2018-11-02T08:48:24.111Z,76.75
2018-11-02T08:50:52.462Z,76.58
2018-11-02T08:53:20.624Z,77.05
2018-11-02T08:55:48.780Z,77.62
2018-11-02T08:58:17.169Z,78.02
2018-11-02T09:00:45.264Z,77.65
2018-11-02T09:03:13.512Z,78.44
2018-11-02T09:05:41.728Z,78.10
2018-11-02T09:08:10.154Z,78.32
2018-11-02T09:10:41.300Z,78.43
2018-11-02T09:13:09.531Z,78.62
2018-11-02T09:15:37.819Z,78.80
2018-11-02T09:18:06.144Z,78.61
2018-11-02T09:20:34.400Z,78.00
2018-11-02T09:23:02.678Z,78.65
2018-11-02T09:25:30.976Z,78.77
2018-11-02T09:27:59.419Z,78.93
2018-11-02T09:30:27.532Z,78.90
2018-11-02T09:32:55.799Z,78.73
2018-11-02T09:35:24.115Z,79.01
2018-11-02T09:37:52.912Z,78.81
2018-11-02T09:40:21.309Z,78.71
2018-11-02T09:42:49.662Z,78.70
2018-11-02T09:45:17.807Z,78.29
2018-11-02T09:47:46.079Z,78.34
2018-11-02T09:50:14.408Z,77.62
2018-11-02T09:52:42.649Z,77.29
2018-11-02T09:55:13.411Z,74.21
2018-11-02T09:57:42.526Z,73.63
2018-11-02T10:00:11.804Z,73.34
2018-11-02T10:02:40.310Z,72.58
2018-11-02T10:05:09.629Z,71.36
2018-11-02T10:07:38.799Z,70.25
2018-11-02T10:10:08.947Z,68.29
2018-11-02T10:12:37.356Z,67.01
2018-11-02T10:15:08.528Z,66.39
2018-11-02T10:17:36.840Z,63.01
2018-11-02T10:20:06.232Z,63.41
2018-11-02T10:22:34.523Z,62.85
2018-11-02T10:25:02.778Z,60.63
2018-11-02T10:27:31.216Z,57.43
2018-11-02T10:30:00.756Z,55.52
2018-11-02T10:32:29.200Z,50.99
2018-11-02T10:34:58.470Z,50.25
2018-11-02T10:37:26.812Z,47.49
2018-11-02T10:39:55.175Z,46.08
2018-11-02T10:42:23.610Z,46.78
2018-11-02T10:44:52.092Z,44.27
2018-11-02T10:47:20.750Z,42.30
2018-11-02T10:49:48.975Z,43.61
2018-11-02T10:52:17.287Z,46.57
2018-11-02T10:54:45.678Z,49.95
2018-11-02T10:57:13.843Z,52.80
2018-11-02T10:59:42.172Z,54.19
2018-11-02T11:02:16.099Z,56.02
2018-11-02T11:04:44.341Z,57.10
2018-11-02T11:07:12.649Z,59.12
2018-11-02T11:09:40.932Z,59.96
2018-11-02T11:12:09.365Z,61.01
2018-11-02T11:14:37.837Z,62.35
2018-11-02T11:17:06.185Z,62.60
2018-11-02T11:19:34.425Z,63.41
2018-11-02T11:22:03.018Z,63.31
2018-11-02T11:24:31.308Z,62.69
2018-11-02T11:26:59.610Z,63.92
2018-11-02T11:29:27.898Z,64.18
2018-11-02T11:31:56.151Z,65.46
2018-11-02T11:34:24.417Z,65.02
2018-11-02T11:36:52.742Z,65.22
2018-11-02T11:39:20.986Z,65.91
2018-11-02T11:41:49.240Z,66.38
2018-11-02T11:44:17.573Z,66.57
2018-11-02T11:46:45.927Z,66.35
2018-11-02T11:49:14.303Z,66.33
2018-11-02T11:51:42.520Z,66.42
2018-11-02T11:54:10.848Z,67.16
2018-11-02T11:56:39.129Z,65.98
2018-11-02T11:59:08.083Z,66.17
2018-11-02T12:01:36.356Z,66.52
2018-11-02T12:04:05.185Z,67.27
2018-11-02T12:06:33.834Z,66.21
2018-11-02T12:09:02.217Z,65.77
2018-11-02T12:11:30.456Z,66.71
2018-11-02T12:13:59.123Z,66.42
2018-11-02T12:16:27.422Z,66.56
2018-11-02T12:18:55.780Z,66.28
2018-11-02T12:21:24.160Z,66.84
2018-11-02T12:23:52.395Z,66.45
2018-11-02T12:26:20.656Z,67.03
2018-11-02T12:28:48.981Z,67.34
2018-11-02T12:31:17.175Z,67.33
2018-11-02T12:33:45.728Z,67.32
2018-11-02T12:36:14.010Z,68.10
2018-11-02T12:38:42.220Z,67.71
2018-11-02T12:41:10.452Z,66.64
2018-11-02T12:43:38.931Z,66.51
2018-11-02T12:46:07.067Z,66.93
2018-11-02T12:48:35.434Z,66.22
2018-11-02T12:51:03.639Z,67.65
2018-11-02T12:53:31.873Z,68.60
2018-11-02T12:56:00.098Z,67.53
2018-11-02T12:58:28.385Z,67.15
2018-11-02T13:00:56.615Z,66.86
2018-11-02T13:03:24.903Z,66.80
2018-11-02T13:05:53.225Z,66.26
2018-11-02T13:08:21.496Z,66.54
2018-11-02T13:10:49.994Z,66.77
2018-11-02T13:13:18.273Z,67.10
2018-11-02T13:15:47.543Z,66.72
2018-11-02T13:18:19.252Z,66.32
2018-11-02T13:20:47.644Z,67.03
2018-11-02T13:23:15.942Z,65.69
2018-11-02T13:25:44.314Z,65.90
2018-11-02T13:28:12.408Z,65.23
2018-11-02T13:30:41.052Z,65.81
2018-11-02T13:33:09.147Z,66.09
2018-11-02T13:35:37.375Z,66.40
2018-11-02T13:38:05.733Z,66.27
2018-11-02T13:40:33.944Z,66.38
2018-11-02T13:43:02.324Z,67.09
2018-11-02T13:45:30.460Z,67.33
2018-11-02T13:47:58.732Z,67.66
2018-11-02T13:50:27.142Z,67.87
2018-11-02T13:52:55.259Z,66.97
2018-11-02T13:55:23.519Z,67.52
2018-11-02T13:57:51.780Z,67.96
2018-11-02T14:00:20.005Z,68.06
2018-11-02T14:02:48.260Z,67.86
2018-11-02T14:05:17.135Z,66.62
2018-11-02T14:07:45.379Z,66.19
2018-11-02T14:10:13.744Z,67.05
2018-11-02T14:12:42.176Z,66.07
2018-11-02T14:15:13.673Z,65.32
2018-11-02T14:17:42.401Z,66.62
2018-11-02T14:20:11.633Z,66.90
2018-11-02T14:22:40.099Z,67.53
2018-11-02T14:25:11.425Z,67.83
2018-11-02T14:27:39.698Z,67.68
2018-11-02T14:30:10.975Z,68.33
2018-11-02T14:32:39.252Z,67.81
2018-11-02T14:35:08.053Z,67.69
2018-11-02T14:37:36.626Z,68.52
2018-11-02T14:40:06.408Z,69.02
2018-11-02T14:42:34.639Z,69.56
2018-11-02T14:45:03.097Z,69.11
2018-11-02T14:47:31.756Z,69.45
2018-11-02T14:50:00.044Z,69.94
2018-11-02T14:52:28.311Z,69.14
2018-11-02T14:54:56.685Z,69.13
2018-11-02T14:57:24.946Z,69.84
2018-11-02T14:59:53.276Z,69.75
2018-11-02T15:02:21.497Z,70.08
2018-11-02T15:04:49.760Z,71.08
2018-11-02T15:07:17.982Z,71.48
2018-11-02T15:09:46.239Z,71.67
2018-11-02T15:12:14.600Z,71.76
2018-11-02T15:14:42.856Z,72.17
2018-11-02T15:17:11.143Z,71.75
2018-11-02T15:19:39.407Z,71.78
2018-11-02T15:22:07.753Z,71.44
2018-11-02T15:24:36.025Z,70.27
2018-11-02T15:27:04.688Z,70.72
2018-11-02T15:29:32.973Z,71.00
2018-11-02T15:32:01.767Z,71.52
2018-11-02T15:34:30.017Z,71.34
2018-11-02T15:36:58.283Z,70.86
2018-11-02T15:39:26.572Z,71.48
2018-11-02T15:41:54.841Z,72.62
2018-11-02T15:44:23.388Z,72.50
2018-11-02T15:46:51.640Z,72.74
2018-11-02T15:49:20.189Z,72.88
2018-11-02T15:51:48.456Z,73.00
2018-11-02T15:54:16.808Z,72.54
2018-11-02T15:56:45.371Z,72.45
2018-11-02T15:59:13.611Z,72.27
2018-11-02T16:01:41.896Z,72.61
2018-11-02T16:04:10.147Z,72.56
2018-11-02T16:06:38.519Z,73.10
2018-11-02T16:09:11.693Z,73.29
2018-11-02T16:11:39.962Z,72.91
2018-11-02T16:14:08.285Z,73.42
2018-11-02T16:16:36.594Z,73.59
2018-11-02T16:19:04.922Z,74.13
2018-11-02T16:21:33.433Z,73.50
2018-11-02T16:24:02.077Z,74.09
2018-11-02T16:26:30.308Z,74.37
2018-11-02T16:28:58.612Z,74.23
2018-11-02T16:31:26.848Z,74.67
2018-11-02T16:33:55.125Z,74.66
2018-11-02T16:36:23.716Z,74.36
2018-11-02T16:38:51.960Z,74.93
2018-11-02T16:41:20.233Z,75.01
2018-11-02T16:43:48.635Z,75.17
2018-11-02T16:46:16.741Z,75.28
2018-11-02T16:48:45.037Z,75.53
2018-11-02T16:51:13.292Z,75.49
2018-11-02T16:53:41.512Z,74.66
2018-11-02T16:56:10.052Z,74.69
2018-11-02T16:58:38.329Z,74.63
2018-11-02T17:01:06.703Z,74.91
2018-11-02T17:03:35.056Z,74.62
2018-11-02T17:06:04.667Z,74.14
2018-11-02T17:08:32.924Z,73.61
2018-11-02T17:11:01.525Z,73.88
2018-11-02T17:13:29.800Z,74.43
2018-11-02T17:15:58.157Z,75.25
2018-11-02T17:18:26.556Z,75.49
2018-11-02T17:20:54.849Z,75.90
2018-11-02T17:23:23.433Z,75.39
2018-11-02T17:25:51.748Z,74.97
2018-11-02T17:28:20.010Z,73.96
2018-11-02T17:30:48.300Z,74.20
2018-11-02T17:33:16.609Z,75.33
2018-11-02T17:35:44.911Z,74.99
2018-11-02T17:38:13.144Z,75.42
2018-11-02T17:40:41.385Z,75.20
2018-11-02T17:43:09.624Z,75.19
2018-11-02T17:45:37.888Z,74.96
2018-11-02T17:48:06.359Z,75.05
2018-11-02T17:50:34.551Z,75.38
2018-11-02T17:53:02.859Z,75.11
2018-11-02T17:55:31.239Z,75.11
2018-11-02T17:57:59.532Z,74.71
2018-11-02T18:00:27.812Z,74.86
2018-11-02T18:02:56.342Z,74.74
2018-11-02T18:05:24.581Z,74.87
2018-11-02T18:07:52.827Z,75.42
2018-11-02T18:10:21.132Z,74.75
2018-11-02T18:12:49.394Z,74.48
2018-11-02T18:15:17.636Z,74.73
2018-11-02T18:17:45.929Z,75.21
2018-11-02T18:20:15.151Z,75.88
2018-11-02T18:22:43.482Z,76.28
2018-11-02T18:25:12.675Z,76.43
2018-11-02T18:27:41.512Z,77.13
2018-11-02T18:30:11.360Z,77.47
2018-11-02T18:32:39.663Z,77.62
2018-11-02T18:35:08.618Z,77.66
2018-11-02T18:37:37.773Z,78.01
2018-11-02T18:40:08.967Z,78.28
2018-11-02T18:42:37.364Z,78.18
2018-11-02T18:45:08.543Z,77.84
2018-11-02T18:47:42.988Z,78.39
2018-11-02T18:50:11.839Z,78.22
2018-11-02T18:52:40.973Z,78.46
2018-11-02T18:55:09.413Z,78.89
2018-11-02T18:57:38.171Z,78.90
2018-11-02T19:00:08.154Z,78.79
2018-11-02T19:02:36.464Z,78.88
2018-11-02T19:05:09.257Z,78.61
2018-11-02T19:07:37.713Z,79.24
2018-11-02T19:10:06.733Z,79.29
2018-11-02T19:12:35.137Z,79.27
2018-11-02T19:15:03.568Z,79.30
2018-11-02T19:17:31.789Z,78.84
2018-11-02T19:20:00.140Z,78.68
2018-11-02T19:22:28.334Z,78.50
2018-11-02T19:24:56.911Z,77.82
2018-11-02T19:27:25.269Z,78.34
2018-11-02T19:29:53.475Z,78.53
2018-11-02T19:32:21.851Z,78.24
2018-11-02T19:34:50.696Z,78.64
2018-11-02T19:37:18.772Z,79.20
2018-11-02T19:39:46.988Z,78.83
2018-11-02T19:42:15.255Z,78.51
2018-11-02T19:44:43.514Z,78.54
2018-11-02T19:47:11.798Z,78.50
2018-11-02T19:49:40.080Z,78.91
2018-11-02T19:52:08.372Z,78.31
2018-11-02T19:54:36.675Z,78.12
2018-11-02T19:57:05.082Z,78.48
2018-11-02T19:59:33.355Z,78.60
2018-11-02T20:02:01.689Z,78.67
2018-11-02T20:04:29.963Z,78.93
2018-11-02T20:06:58.233Z,78.84
2018-11-02T20:09:26.598Z,78.94
2018-11-02T20:11:55.050Z,78.77
2018-11-02T20:14:23.288Z,79.10
2018-11-02T20:16:51.524Z,79.31
2018-11-02T20:19:19.876Z,79.12
2018-11-02T20:21:48.123Z,78.95
2018-11-02T20:24:16.433Z,78.69
2018-11-02T20:26:44.792Z,79.17
2018-11-02T20:29:13.036Z,78.98
2018-11-02T20:31:41.369Z,79.25
2018-11-02T20:34:09.709Z,79.85
2018-11-02T20:36:37.986Z,79.94
2018-11-02T20:39:09.866Z,80.39
2018-11-02T20:41:38.071Z,80.15
2018-11-02T20:44:06.484Z,80.47
2018-11-02T20:46:35.423Z,80.55
2018-11-02T20:49:03.982Z,80.44
2018-11-02T20:51:32.294Z,80.55
2018-11-02T20:54:00.861Z,80.37
2018-11-02T20:56:29.290Z,80.69
2018-11-02T20:58:57.724Z,80.43
2018-11-02T21:01:26.021Z,80.79
2018-11-02T21:03:55.051Z,80.10
2018-11-02T21:06:23.474Z,80.40
2018-11-02T21:08:52.038Z,80.86
2018-11-02T21:11:20.324Z,80.94
2018-11-02T21:13:48.609Z,81.24
2018-11-02T21:16:16.921Z,81.05
2018-11-02T21:18:45.530Z,81.43
2018-11-02T21:21:13.945Z,81.96
2018-11-02T21:23:42.757Z,82.09
2018-11-02T21:26:11.114Z,82.49
2018-11-02T21:28:40.164Z,82.25
2018-11-02T21:31:08.428Z,81.93
2018-11-02T21:33:36.857Z,82.22
2018-11-02T21:36:05.057Z,81.99
2018-11-02T21:38:34.621Z,81.90
2018-11-02T21:41:02.847Z,82.00
2018-11-02T21:43:31.468Z,82.11
2018-11-02T21:45:59.831Z,81.36
2018-11-02T21:48:28.189Z,81.30
2018-11-02T21:50:56.499Z,81.06
2018-11-02T21:53:24.794Z,81.56
2018-11-02T21:55:53.170Z,81.89
2018-11-02T21:58:22.640Z,82.05
2018-11-02T22:00:50.805Z,82.27
2018-11-02T22:03:19.132Z,82.63
2018-11-02T22:05:47.462Z,82.86
2018-11-02T22:08:15.703Z,82.68
2018-11-02T22:10:43.974Z,82.48
2018-11-02T22:13:12.244Z,82.01
2018-11-02T22:15:40.560Z,81.96
2018-11-02T22:18:09.110Z,82.20
2018-11-02T22:20:37.363Z,82.32
2018-11-02T22:23:05.742Z,82.62
2018-11-02T22:25:34.033Z,82.74
2018-11-02T22:28:02.278Z,82.95
2018-11-02T22:30:30.550Z,83.00
2018-11-02T22:32:58.787Z,83.13
2018-11-02T22:35:27.007Z,83.01
2018-11-02T22:37:55.245Z,82.80
2018-11-02T22:40:23.489Z,83.21
2018-11-02T22:42:52.012Z,83.20
2018-11-02T22:45:20.255Z,83.39
2018-11-02T22:47:54.447Z,82.55
2018-11-02T22:50:22.713Z,82.88
2018-11-02T22:52:50.968Z,83.67
2018-11-02T22:55:19.482Z,83.17
2018-11-02T22:57:47.696Z,82.78
2018-11-02T23:00:17.328Z,83.25
2018-11-02T23:02:46.774Z,83.25
2018-11-02T23:05:15.125Z,82.92
2018-11-02T23:07:43.940Z,83.43
2018-11-02T23:10:12.296Z,83.48
2018-11-02T23:12:41.180Z,83.44
2018-11-02T23:15:10.348Z,83.81
2018-11-02T23:17:38.681Z,84.06
2018-11-02T23:20:10.377Z,84.48
2018-11-02T23:22:38.600Z,84.65
2018-11-02T23:25:08.519Z,84.77
2018-11-02T23:27:36.846Z,84.88
2018-11-02T23:30:07.114Z,84.31
2018-11-02T23:32:35.335Z,84.70
2018-11-02T23:35:03.612Z,84.49
2018-11-02T23:37:32.168Z,84.35
2018-11-02T23:40:00.437Z,84.79
2018-11-02T23:42:29.026Z,85.34
2018-11-02T23:44:57.279Z,85.04
2018-11-02T23:47:25.449Z,85.03
2018-11-02T23:49:53.965Z,85.30
2018-11-02T23:52:22.824Z,85.28
2018-11-02T23:54:51.129Z,85.87
2018-11-02T23:57:19.429Z,85.90
2018-11-02T23:59:47.661Z,86.46
